| Date | Time | Temp. (oF) | Dew Point (oF) | Rel. Hum. (%) | Press. (in.) | Wind Dir. | Wind Speed (mph) | Hourly Rainfall (in.) |
|
|---|---|---|---|---|---|---|---|---|---|
| 1 | 11/02 | 00:00 | 50 | 48 | 95 | 29.99 | N | 7 | 0.00 |
| 2 | 11/01 | 23:00 | 52 | 49 | 92 | 29.95 | WNW | 7 | 0.00 |
| 3 | 11/01 | 22:00 | 56 | 48 | 76 | 29.95 | NW | 4 | 0.00 |
| 4 | 11/01 | 21:00 | 58 | 47 | 67 | 29.91 | W | 2 | 0.00 |
| 5 | 11/01 | 20:00 | 59 | 48 | 67 | 29.87 | S | 4 | 0.00 |
| 6 | 11/01 | 19:00 | 59 | 47 | 66 | 29.87 | S | 4 | 0.00 |
| 7 | 11/01 | 18:00 | 59 | 48 | 67 | 29.87 | S | 3 | 0.00 |
| 8 | 11/01 | 17:00 | 61 | 48 | 63 | 29.89 | S | 4 | 0.00 |
| 9 | miss | miss | miss | miss | miss | miss | miss | miss | |
| 10 | 11/01 | 16:39 | 63 | 49 | 61 | 29.89 | S | 4 | 0.00 |
| 11 | miss | miss | miss | miss | miss | miss | miss | miss | |
| 12 | 11/01 | 16:37 | 63 | 49 | 61 | 29.89 | SSE | 7 | 0.00 |
| 13 | miss | miss | miss | miss | miss | miss | miss | miss | |
| 14 | 11/01 | 16:35 | 63 | 49 | 61 | 29.89 | S | 5 | 0.00 |
| 15 | miss | miss | miss | miss | miss | miss | miss | miss | |
| 16 | 11/01 | 16:33 | 63 | 49 | 61 | 29.89 | S | 4 | 0.00 |
| 17 | miss | miss | miss | miss | miss | miss | miss | miss | |
| 18 | 11/01 | 16:31 | 63 | 49 | 61 | 29.89 | S | 4 | 0.00 |
| 19 | miss | miss | miss | miss | miss | miss | miss | miss | |
| 20 | 11/01 | 16:29 | 63 | 49 | 61 | 29.89 | S | 7 | 0.00 |
| 21 | miss | miss | miss | miss | miss | miss | miss | miss | |
| 22 | 11/01 | 16:27 | 63 | 49 | 61 | 29.89 | SSW | 6 | 0.00 |
| 23 | miss | miss | miss | miss | miss | miss | miss | miss | |
| 24 | 11/01 | 16:25 | 63 | 49 | 61 | 29.89 | S | 7 | 0.00 |
| 25 | miss | miss | miss | miss | miss | miss | miss | miss | |
| 26 | 11/01 | 16:24 | 63 | 49 | 61 | 29.89 | S | 7 | 0.00 |
| 27 | miss | miss | miss | miss | miss | miss | miss | miss | |
| 28 | 11/01 | 16:24 | 63 | 49 | 61 | 29.89 | S | 7 | 0.00 |
| 29 | miss | miss | miss | miss | miss | miss | miss | miss | |
| 30 | 11/01 | 16:24 | 63 | 49 | 61 | 29.89 | S | 7 | 0.00 |
| 31 | miss | miss | miss | miss | miss | miss | miss | miss | |
| 32 | 11/01 | 16:24 | 63 | 49 | 61 | 29.89 | S | 7 | 0.00 |
| 33 | 11/01 | 16:00 | 64 | 49 | 59 | 29.90 | S | 6 | 0.00 |
| 34 | 11/01 | 15:00 | 68 | 49 | 51 | 29.89 | SE | 8 | 0.00 |
| 35 | 11/01 | 14:00 | 71 | 47 | 44 | 29.90 | SSW | 7 | 0.00 |
| 36 | 11/01 | 13:00 | 70 | 46 | 43 | 29.95 | SSW | 7 | 0.00 |
| 37 | 11/01 | 12:00 | 67 | 47 | 50 | 29.98 | SSW | 6 | 0.00 |
| 38 | 11/01 | 11:00 | 63 | 47 | 58 | 30.02 | S | 5 | 0.00 |
| 39 | 11/01 | 10:00 | 57 | 47 | 71 | 30.06 | S | 4 | 0.00 |
| 40 | 11/01 | 09:00 | 52 | 46 | 83 | 30.08 | SSW | 5 | 0.00 |
| 41 | 11/01 | 08:00 | 44 | 44 | 100 | 30.09 | SW | 2 | 0.00 |
| 42 | 11/01 | 07:00 | 36 | 36 | 100 | 30.08 | S | 2 | 0.00 |
| 43 | 11/01 | 06:00 | 36 | 35 | 99 | 30.08 | E | 0 | 0.00 |
| 44 | 11/01 | 05:00 | 37 | 36 | 99 | 30.09 | E | 0 | 0.00 |
| 45 | 11/01 | 04:00 | 38 | 37 | 98 | 30.09 | E | 0 | 0.00 |
| 46 | 11/01 | 03:00 | 39 | 38 | 97 | 30.10 | E | 0 | 0.00 |
| 47 | 11/01 | 02:00 | 41 | 39 | 95 | 30.12 | SE | 0 | 0.00 |
| 48 | 11/01 | 01:00 | 42 | 39 | 91 | 30.14 | SE | 0 | 0.00 |
| 49 | 11/01 | 00:00 | 44 | 40 | 88 | 30.15 | SSE | 0 | 0.00 |
| 50 | 10/31 | 23:00 | 45 | 40 | 85 | 30.16 | SSE | 0 | 0.00 |
| 51 | 10/31 | 22:00 | 47 | 42 | 83 | 30.17 | SSE | 0 | 0.00 |
| 52 | 10/31 | 21:00 | 50 | 42 | 76 | 30.18 | SSE | 0 | 0.00 |
| 53 | 10/31 | 20:00 | 52 | 42 | 69 | 30.17 | SSE | 0 | 0.00 |
| 54 | 10/31 | 19:00 | 55 | 40 | 59 | 30.17 | SSE | 0 | 0.00 |
| 55 | 10/31 | 18:00 | 61 | 41 | 49 | 30.16 | S | 0 | 0.00 |
| 56 | 10/31 | 17:00 | 67 | 40 | 38 | 30.14 | SSW | 3 | 0.00 |
| 57 | 10/31 | 16:00 | 71 | 40 | 33 | 30.13 | SW | 3 | 0.00 |
| 58 | 10/31 | 15:00 | 71 | 37 | 30 | 30.15 | S | 6 | 0.00 |
| 59 | 10/31 | 14:00 | 71 | 39 | 32 | 30.16 | W | 4 | 0.00 |
| 60 | 10/31 | 13:00 | 70 | 42 | 37 | 30.20 | SW | 6 | 0.00 |
| 61 | 10/31 | 12:00 | 68 | 41 | 38 | 30.23 | W | 8 | 0.00 |
| 62 | 10/31 | 11:00 | 62 | 45 | 54 | 30.26 | SSE | 0 | 0.00 |
| 63 | 10/31 | 10:00 | 53 | 48 | 84 | 30.28 | ENE | 0 | 0.00 |
| 64 | 10/31 | 09:00 | 44 | 44 | 100 | 30.29 | SE | 0 | 0.00 |
| 65 | 10/31 | 08:00 | 36 | 36 | 100 | 30.31 | WNW | 0 | 0.00 |
| 66 | 10/31 | 08:55 | 34 | 33 | 100 | 30.31 | WNW | 0 | 0.00 |
| 67 | miss | miss | miss | miss | miss | miss | miss | miss | |
| 68 | 10/31 | 08:53 | 34 | 33 | 100 | 30.30 | WNW | 0 | 0.00 |
| 69 | miss | miss | miss | miss | miss | miss | miss | miss | |
| 70 | 10/31 | 08:51 | 34 | 33 | 100 | 30.30 | WNW | 0 | 0.00 |
| 71 | miss | miss | miss | miss | miss | miss | miss | miss | |
| 72 | 10/31 | 08:49 | 33 | 32 | 100 | 30.31 | WNW | 0 | 0.00 |
| 73 | miss | miss | miss | miss | miss | miss | miss | miss | |
| 74 | 10/31 | 08:48 | 33 | 32 | 100 | 30.31 | WNW | 0 | 0.00 |
| 75 | miss | miss | miss | miss | miss | miss | miss | miss | |
| 76 | 10/31 | 08:48 | 33 | 32 | 100 | 30.31 | WNW | 0 | 0.00 |
| 77 | miss | miss | miss | miss | miss | miss | miss | miss | |
| 78 | 10/31 | 08:48 | 33 | 32 | 100 | 30.31 | WNW | 0 | 0.00 |
| 79 | miss | miss | miss | miss | miss | miss | miss | miss | |
| 80 | 10/31 | 08:48 | 33 | 32 | 100 | 30.31 | WNW | 0 | 0.00 |
| 81 | miss | miss | miss | miss | miss | miss | miss | miss | |
| 82 | 10/31 | 08:48 | 33 | 32 | 100 | 30.31 | WNW | 0 | 0.00 |
| 83 | miss | miss | miss | miss | miss | miss | miss | miss | |
| 84 | 10/31 | 08:48 | 33 | 32 | 100 | 30.31 | WNW | 0 | 0.00 |
| 85 | miss | miss | miss | miss | miss | miss | miss | miss | |
| 86 | 10/31 | 08:48 | 33 | 32 | 100 | 30.31 | WNW | 0 | 0.00 |
| 87 | miss | miss | miss | miss | miss | miss | miss | miss | |
| 88 | 10/31 | 08:48 | 33 | 32 | 100 | 30.31 | WNW | 0 | 0.00 |
| 89 | 10/31 | 08:00 | 31 | 31 | 100 | 30.29 | NW | 0 | 0.00 |
| 90 | 10/31 | 07:00 | 32 | 31 | 99 | 30.29 | NNW | 0 | 0.00 |
| 91 | 10/31 | 06:00 | 32 | 31 | 99 | 30.29 | NNW | 0 | 0.00 |
| 92 | 10/31 | 05:00 | 33 | 32 | 98 | 30.28 | NNW | 0 | 0.00 |
| 93 | 10/31 | 04:00 | 34 | 33 | 97 | 30.28 | NNW | 0 | 0.00 |
| 94 | 10/31 | 03:00 | 35 | 33 | 96 | 30.28 | NNW | 0 | 0.00 |
| 95 | 10/31 | 02:00 | 36 | 34 | 94 | 30.28 | NNW | 0 | 0.00 |
| 96 | 10/31 | 01:00 | 38 | 35 | 92 | 30.29 | NNW | 0 | 0.00 |